Time;durP1;ratioP1;P1;durP2;ratioP2;P2;SDS_P1;SDS_P2;PMS_P1;PMS_P2;Temp;Humidity;BMP_temperature;BMP_pressure;BME280_temperature;BME280_humidity;BME280_pressure;Samples;Min_cycle;Max_cycle;Signal;HPM_P1;HPM_P2
2023/03/26 00:00:22;;;;;;;16.80;3.22;;;6.80;98.60;;;;;;5028154;28;20063;-87
2023/03/26 00:02:48;;;;;;;12.77;2.90;;;6.80;98.70;;;;;;5029629;28;20112;-89
2023/03/26 00:05:13;;;;;;;12.77;2.72;;;6.80;98.70;;;;;;5048648;28;20070;-89
2023/03/26 00:07:39;;;;;;;12.48;3.08;;;6.80;98.90;;;;;;5046718;28;20349;-88
2023/03/26 00:10:05;;;;;;;14.02;3.67;;;6.80;99.00;;;;;;5046969;28;20078;-88
2023/03/26 00:12:31;;;;;;;17.85;3.08;;;6.80;98.90;;;;;;5048212;28;20041;-88
2023/03/26 00:14:56;;;;;;;10.73;2.75;;;6.80;98.90;;;;;;5047532;28;20037;-87
2023/03/26 00:17:22;;;;;;;12.52;2.85;;;6.80;98.90;;;;;;5047400;28;20033;-88
2023/03/26 00:19:47;;;;;;;13.95;3.90;;;6.80;99.00;;;;;;5043915;28;20080;-85
2023/03/26 00:22:15;;;;;;;10.40;3.13;;;6.80;98.90;;;;;;5055112;28;20101;-88
2023/03/26 00:24:44;;;;;;;15.25;3.30;;;6.80;98.90;;;;;;5047707;28;20088;-85
2023/03/26 00:27:11;;;;;;;9.23;3.38;;;6.70;98.80;;;;;;5049879;28;20170;-88
2023/03/26 00:29:38;;;;;;;9.43;3.20;;;6.70;98.80;;;;;;5044357;28;20107;-88
2023/03/26 00:32:04;;;;;;;15.70;3.17;;;6.70;98.80;;;;;;5044266;28;20094;-88
2023/03/26 00:34:33;;;;;;;18.45;3.03;;;6.70;98.90;;;;;;5040130;28;20347;-87
2023/03/26 00:37:01;;;;;;;18.67;3.38;;;6.70;99.00;;;;;;5044839;28;20087;-89
2023/03/26 00:39:28;;;;;;;13.65;3.22;;;6.70;99.10;;;;;;5047040;28;20023;-87
2023/03/26 00:41:54;;;;;;;15.57;3.40;;;6.70;99.20;;;;;;5040683;28;20210;-88
2023/03/26 00:44:20;;;;;;;11.05;2.80;;;6.70;99.20;;;;;;5044786;28;20429;-89
2023/03/26 00:46:45;;;;;;;15.05;3.65;;;6.70;99.10;;;;;;5029633;28;20044;-88
2023/03/26 00:49:13;;;;;;;20.58;3.35;;;6.70;98.90;;;;;;5047700;28;20138;-88
2023/03/26 00:51:40;;;;;;;10.40;2.58;;;6.80;98.90;;;;;;5045946;28;20029;-89
2023/03/26 00:54:07;;;;;;;16.02;3.42;;;6.70;98.70;;;;;;5047263;28;20059;-89
2023/03/26 00:56:33;;;;;;;14.25;2.75;;;6.70;98.70;;;;;;5047176;28;20052;-88
2023/03/26 00:58:59;;;;;;;17.85;3.35;;;6.70;98.80;;;;;;5044227;28;20335;-89
2023/03/26 01:01:27;;;;;;;10.77;2.85;;;6.70;98.80;;;;;;5047355;28;20025;-88
2023/03/26 01:03:57;;;;;;;13.43;2.50;;;6.60;98.80;;;;;;5050617;28;20087;-88
2023/03/26 01:06:31;;;;;;;11.60;2.35;;;6.60;98.80;;;;;;5045467;28;20444;-87
2023/03/26 01:09:02;;;;;;;14.88;2.60;;;6.50;98.70;;;;;;5047156;28;20033;-88
2023/03/26 01:11:31;;;;;;;13.98;2.55;;;6.50;98.70;;;;;;5034675;28;20100;-87
2023/03/26 01:14:01;;;;;;;10.77;2.58;;;6.50;98.50;;;;;;5039824;28;20056;-89
2023/03/26 01:16:35;;;;;;;10.93;2.80;;;6.50;98.30;;;;;;5042595;28;20133;-89
2023/03/26 01:19:03;;;;;;;7.20;2.00;;;6.50;98.40;;;;;;5046425;28;20255;-89
2023/03/26 01:21:29;;;;;;;6.78;2.03;;;6.50;98.50;;;;;;5045449;28;20438;-86
2023/03/26 01:24:05;;;;;;;14.07;2.45;;;6.40;98.50;;;;;;5046897;28;20025;-89
2023/03/26 01:26:46;;;;;;;13.32;2.70;;;6.40;98.60;;;;;;5045532;28;20116;-90
2023/03/26 01:29:39;;;;;;;11.40;1.95;;;6.30;98.70;;;;;;5042339;28;20481;-88
2023/03/26 01:32:20;;;;;;;13.55;2.53;;;6.30;98.50;;;;;;5044566;28;20407;-88
2023/03/26 01:35:11;;;;;;;13.80;2.53;;;6.20;98.40;;;;;;5038997;28;20358;-85
2023/03/26 01:37:57;;;;;;;11.45;3.00;;;6.10;98.30;;;;;;5043915;28;20029;-89
2023/03/26 01:40:48;;;;;;;10.68;2.75;;;6.10;98.10;;;;;;5024463;28;20511;-88
2023/03/26 01:43:35;;;;;;;8.38;1.90;;;6.00;98.20;;;;;;5045795;28;20115;-89
2023/03/26 01:46:04;;;;;;;12.05;2.40;;;6.00;97.90;;;;;;5038208;28;20044;-89
2023/03/26 01:48:36;;;;;;;13.43;2.53;;;6.00;97.70;;;;;;5046397;28;20028;-89
2023/03/26 01:51:03;;;;;;;11.98;2.30;;;6.00;97.60;;;;;;5038271;28;20039;-89
2023/03/26 01:53:30;;;;;;;16.30;2.90;;;6.00;97.70;;;;;;5049191;28;20309;-89
2023/03/26 01:56:11;;;;;;;7.60;2.03;;;5.90;97.80;;;;;;5046567;28;20325;-89
2023/03/26 01:59:07;;;;;;;14.30;2.35;;;6.00;97.70;;;;;;5044309;28;20020;-89
2023/03/26 02:01:53;;;;;;;15.88;2.55;;;6.00;97.60;;;;;;5044282;28;20182;-88
2023/03/26 02:04:42;;;;;;;8.52;1.80;;;5.90;97.70;;;;;;5050381;28;20068;-88
2023/03/26 02:12:20;;;;;;;10.25;2.13;;;6.00;97.50;;;;;;5013383;22;20085;-88
2023/03/26 02:14:46;;;;;;;10.77;2.00;;;6.00;97.60;;;;;;5010052;28;20438;-85
2023/03/26 02:17:11;;;;;;;11.38;1.77;;;6.10;97.50;;;;;;5007033;28;20216;-88
2023/03/26 02:19:41;;;;;;;5.93;1.65;;;6.10;97.40;;;;;;5007955;28;20108;-88
2023/03/26 02:22:09;;;;;;;12.90;1.98;;;6.10;97.40;;;;;;5009359;28;20105;-89
2023/03/26 02:24:37;;;;;;;6.85;1.58;;;6.10;97.50;;;;;;5010457;28;20029;-88
2023/03/26 02:27:03;;;;;;;8.52;1.70;;;6.10;97.60;;;;;;5008370;28;20429;-88
2023/03/26 02:29:28;;;;;;;11.32;2.60;;;6.10;97.60;;;;;;5002524;28;20442;-89
2023/03/26 02:31:54;;;;;;;9.80;1.88;;;6.10;97.60;;;;;;5010065;28;20026;-86
2023/03/26 02:34:19;;;;;;;14.48;1.95;;;6.10;97.60;;;;;;5010321;28;20148;-89
2023/03/26 02:36:45;;;;;;;13.55;2.42;;;6.10;97.70;;;;;;5007288;28;20100;-89
2023/03/26 02:39:13;;;;;;;13.50;2.42;;;6.00;97.70;;;;;;5010473;28;20463;-88
2023/03/26 02:41:39;;;;;;;10.00;1.95;;;6.00;97.70;;;;;;5009368;28;20132;-88
2023/03/26 02:44:04;;;;;;;14.98;2.42;;;6.00;97.80;;;;;;5010070;28;20549;-87
2023/03/26 02:46:31;;;;;;;8.35;2.17;;;6.00;97.80;;;;;;5001780;28;20033;-87
2023/03/26 02:48:57;;;;;;;9.65;2.15;;;6.00;97.70;;;;;;5023549;28;20064;-88
2023/03/26 02:51:24;;;;;;;9.55;2.10;;;6.00;97.70;;;;;;5016712;28;20570;-87
2023/03/26 02:53:50;;;;;;;10.68;2.20;;;6.00;97.50;;;;;;5008147;28;20344;-89
2023/03/26 02:56:15;;;;;;;8.30;2.17;;;6.00;97.50;;;;;;5013362;28;20057;-87
2023/03/26 02:58:41;;;;;;;12.40;2.13;;;6.00;97.40;;;;;;5010513;28;20612;-88
2023/03/26 03:01:06;;;;;;;10.88;1.75;;;6.00;97.50;;;;;;5010051;28;20045;-88
2023/03/26 03:03:33;;;;;;;10.10;1.77;;;6.00;97.50;;;;;;5008579;28;20525;-88
2023/03/26 03:05:58;;;;;;;8.80;1.90;;;6.00;97.20;;;;;;5013605;28;20056;-86
2023/03/26 03:08:26;;;;;;;13.25;1.98;;;6.00;97.30;;;;;;5005223;28;20030;-88
2023/03/26 03:11:00;;;;;;;12.70;2.20;;;6.00;97.20;;;;;;4997299;28;20495;-87
2023/03/26 03:13:26;;;;;;;14.02;2.10;;;6.00;97.10;;;;;;4987973;28;20451;-87
2023/03/26 03:15:51;;;;;;;8.48;2.15;;;6.00;97.30;;;;;;4988514;28;20034;-88
2023/03/26 03:18:17;;;;;;;9.70;2.15;;;6.00;97.40;;;;;;4989142;28;20086;-88
2023/03/26 03:20:43;;;;;;;8.48;1.63;;;6.10;97.10;;;;;;4988804;28;20478;-88
2023/03/26 03:23:09;;;;;;;11.52;2.08;;;6.10;96.80;;;;;;4988045;28;20026;-87
2023/03/26 03:25:35;;;;;;;11.73;2.33;;;6.10;96.20;;;;;;4988408;28;20053;-87
2023/03/26 03:28:01;;;;;;;9.05;2.22;;;6.10;96.20;;;;;;4989388;28;20038;-86
2023/03/26 03:30:26;;;;;;;6.45;1.80;;;6.10;95.90;;;;;;4994131;28;20106;-87
2023/03/26 03:32:52;;;;;;;8.75;2.33;;;6.00;95.50;;;;;;5002639;28;20383;-86
2023/03/26 03:35:17;;;;;;;11.13;1.70;;;6.10;95.20;;;;;;4987312;28;20202;-88
2023/03/26 03:37:43;;;;;;;4.78;1.38;;;6.10;95.10;;;;;;5000801;28;20092;-85
2023/03/26 03:40:09;;;;;;;10.50;1.83;;;6.00;94.70;;;;;;4999460;28;20037;-87
2023/03/26 03:42:35;;;;;;;12.43;2.60;;;6.00;94.80;;;;;;4988153;28;20042;-87
2023/03/26 03:45:02;;;;;;;12.25;1.98;;;6.00;94.60;;;;;;4986399;28;20162;-88
2023/03/26 03:47:27;;;;;;;14.43;1.70;;;6.00;94.40;;;;;;4988541;28;20030;-87
2023/03/26 03:49:53;;;;;;;6.32;1.65;;;6.00;94.80;;;;;;4995604;28;20056;-87
2023/03/26 03:52:18;;;;;;;9.50;2.20;;;5.90;94.90;;;;;;4985579;28;20226;-86
2023/03/26 03:54:44;;;;;;;14.93;2.08;;;5.90;94.80;;;;;;4999409;28;20045;-87
2023/03/26 03:57:09;;;;;;;8.20;1.73;;;5.80;94.50;;;;;;5003726;28;20064;-87
2023/03/26 03:59:35;;;;;;;15.15;2.60;;;5.90;94.70;;;;;;4990108;28;20046;-88
2023/03/26 04:02:01;;;;;;;10.85;1.83;;;5.80;94.50;;;;;;4989402;28;20428;-88
2023/03/26 04:04:26;;;;;;;11.50;1.83;;;5.80;94.20;;;;;;4989744;28;20068;-88
2023/03/26 04:06:52;;;;;;;6.03;1.35;;;5.80;94.10;;;;;;4986896;28;20447;-87
2023/03/26 04:09:17;;;;;;;6.13;1.58;;;5.80;93.40;;;;;;4990849;28;20038;-87
2023/03/26 04:11:43;;;;;;;10.40;1.88;;;5.90;92.10;;;;;;4988345;28;20496;-87
2023/03/26 04:14:09;;;;;;;9.88;1.83;;;6.00;90.50;;;;;;4986394;28;20065;-87
2023/03/26 04:16:34;;;;;;;4.93;1.40;;;5.90;91.10;;;;;;4987660;28;20042;-87
2023/03/26 04:19:02;;;;;;;11.63;2.20;;;5.90;92.20;;;;;;4986770;28;20043;-87
2023/03/26 04:21:31;;;;;;;5.28;1.65;;;5.80;91.70;;;;;;4986398;28;20042;-86
2023/03/26 04:23:56;;;;;;;10.38;1.77;;;5.80;92.20;;;;;;4988883;28;20076;-87
2023/03/26 04:26:22;;;;;;;12.85;1.92;;;5.70;92.70;;;;;;4991339;28;20132;-87
2023/03/26 04:28:52;;;;;;;11.35;1.90;;;5.70;92.70;;;;;;4986921;28;20026;-80
2023/03/26 04:31:27;;;;;;;11.50;2.20;;;5.70;93.10;;;;;;4986051;28;20053;-80
2023/03/26 04:33:55;;;;;;;12.18;1.75;;;5.70;93.20;;;;;;4983844;28;20040;-79
2023/03/26 04:36:26;;;;;;;13.02;1.70;;;5.70;93.00;;;;;;4995430;28;20116;-80
2023/03/26 04:38:52;;;;;;;9.95;1.70;;;5.70;92.20;;;;;;4974591;28;20027;-80
2023/03/26 04:41:17;;;;;;;12.85;2.03;;;5.70;92.10;;;;;;4987365;28;20422;-80
2023/03/26 04:43:46;;;;;;;10.05;1.90;;;5.70;92.40;;;;;;4987523;28;20117;-80
2023/03/26 04:46:13;;;;;;;8.52;1.52;;;5.70;92.30;;;;;;4982477;28;20428;-80
2023/03/26 04:48:38;;;;;;;10.73;1.77;;;5.70;91.90;;;;;;4990063;28;20061;-80
2023/03/26 04:51:08;;;;;;;13.68;2.28;;;5.60;92.20;;;;;;4993716;28;20124;-80
2023/03/26 04:53:34;;;;;;;12.17;2.00;;;5.60;92.40;;;;;;4984431;28;20560;-79
2023/03/26 04:56:20;;;;;;;12.25;2.03;;;5.60;92.50;;;;;;4987460;28;20137;-80
2023/03/26 04:58:48;;;;;;;11.43;2.25;;;5.60;92.10;;;;;;4987136;28;20049;-80
2023/03/26 05:01:15;;;;;;;8.00;1.52;;;5.60;91.80;;;;;;4994016;28;20029;-80
2023/03/26 05:03:41;;;;;;;11.35;2.05;;;5.50;91.50;;;;;;4986787;28;20479;-80
2023/03/26 05:06:10;;;;;;;12.40;2.13;;;5.50;91.90;;;;;;4987184;28;20037;-80
2023/03/26 05:08:35;;;;;;;12.52;2.08;;;5.50;92.10;;;;;;4993121;28;20443;-80
2023/03/26 05:11:01;;;;;;;11.68;1.92;;;5.50;92.10;;;;;;4993694;28;20058;-80
2023/03/26 05:13:26;;;;;;;8.25;1.55;;;5.60;91.60;;;;;;4986382;28;20129;-80
2023/03/26 05:15:52;;;;;;;20.45;2.28;;;5.50;92.00;;;;;;4988037;28;20066;-80
2023/03/26 05:18:17;;;;;;;16.63;2.08;;;5.50;91.90;;;;;;4981931;28;20035;-80
2023/03/26 05:20:43;;;;;;;17.40;2.00;;;5.40;91.80;;;;;;4984576;28;20105;-80
2023/03/26 05:23:09;;;;;;;12.48;1.80;;;5.40;91.90;;;;;;4991074;28;20057;-80
2023/03/26 05:25:35;;;;;;;12.13;1.65;;;5.40;92.00;;;;;;4990399;28;20076;-81
2023/03/26 05:28:01;;;;;;;17.10;2.40;;;5.40;92.60;;;;;;4989099;28;20114;-80
2023/03/26 05:30:27;;;;;;;12.10;2.33;;;5.40;92.50;;;;;;4972494;28;20104;-81
2023/03/26 05:32:52;;;;;;;13.48;2.30;;;5.40;92.20;;;;;;4988841;28;20141;-80
2023/03/26 05:35:18;;;;;;;16.02;2.28;;;5.40;91.40;;;;;;4991072;28;20693;-79
2023/03/26 05:37:45;;;;;;;14.95;1.90;;;5.50;90.40;;;;;;4989817;28;20061;-80
2023/03/26 05:40:13;;;;;;;6.63;1.40;;;5.50;91.20;;;;;;4989538;28;20041;-78
2023/03/26 05:42:39;;;;;;;7.75;1.35;;;5.50;90.50;;;;;;4987125;28;20084;-78
2023/03/26 05:45:10;;;;;;;14.88;1.98;;;5.50;90.00;;;;;;4976573;28;20038;-79
2023/03/26 05:47:36;;;;;;;;;;;5.50;89.50;;;;;;4990996;28;20186;-80
2023/03/26 05:50:02;;;;;;;9.20;1.30;;;5.50;89.80;;;;;;5003125;28;19990;-80
2023/03/26 05:52:27;;;;;;;8.32;1.17;;;5.60;89.20;;;;;;4987602;28;20030;-79
2023/03/26 05:54:53;;;;;;;7.45;1.33;;;5.60;89.50;;;;;;4996023;28;20042;-79
2023/03/26 05:57:18;;;;;;;9.32;1.63;;;5.60;89.20;;;;;;4989754;28;20050;-79
2023/03/26 05:59:44;;;;;;;9.13;1.70;;;5.60;89.90;;;;;;4990285;28;20045;-79
2023/03/26 06:02:10;;;;;;;6.28;1.35;;;5.60;89.00;;;;;;4995107;28;20141;-79
2023/03/26 06:04:39;;;;;;;11.95;1.70;;;5.60;89.80;;;;;;4994715;28;20045;-80
2023/03/26 06:07:08;;;;;;;8.55;1.35;;;5.60;89.90;;;;;;4988523;28;20034;-79
2023/03/26 06:09:37;;;;;;;13.15;1.75;;;5.60;89.80;;;;;;4988777;28;20041;-79
2023/03/26 06:12:06;;;;;;;11.45;1.58;;;5.60;89.60;;;;;;4991598;28;20057;-79
2023/03/26 06:14:32;;;;;;;7.55;1.52;;;5.70;89.20;;;;;;4989380;28;20105;-79
2023/03/26 06:16:58;;;;;;;10.98;1.73;;;5.70;88.70;;;;;;4988618;28;20035;-79
2023/03/26 06:19:23;;;;;;;8.68;1.50;;;5.70;88.90;;;;;;4982234;28;20118;-79
2023/03/26 06:21:49;;;;;;;8.82;1.58;;;5.70;89.40;;;;;;4988719;28;20038;-78
2023/03/26 06:24:15;;;;;;;15.13;2.30;;;5.70;89.50;;;;;;4989826;28;20034;-78
2023/03/26 06:26:41;;;;;;;8.63;1.77;;;5.80;89.50;;;;;;4988946;28;20030;-78
2023/03/26 06:29:07;;;;;;;10.50;1.60;;;5.80;89.50;;;;;;4972020;28;20420;-79
2023/03/26 06:31:32;;;;;;;13.45;2.03;;;5.80;90.00;;;;;;4989238;28;20072;-80
2023/03/26 06:33:58;;;;;;;8.63;1.70;;;5.80;89.90;;;;;;4989742;28;20070;-79
2023/03/26 06:36:24;;;;;;;11.35;1.92;;;5.80;90.20;;;;;;4985823;28;20443;-80
2023/03/26 06:38:49;;;;;;;10.63;2.35;;;5.80;90.10;;;;;;4988438;28;20100;-80
2023/03/26 06:41:15;;;;;;;9.95;2.05;;;5.90;90.40;;;;;;4995876;28;20115;-79
2023/03/26 06:43:40;;;;;;;9.75;1.65;;;5.90;90.10;;;;;;4989214;28;20175;-80
2023/03/26 06:46:06;;;;;;;18.20;2.40;;;6.00;90.00;;;;;;4985805;28;20060;-80
2023/03/26 06:48:31;;;;;;;8.43;2.35;;;6.00;90.20;;;;;;4988788;28;20380;-80
2023/03/26 06:50:57;;;;;;;13.23;2.72;;;6.00;89.50;;;;;;4989924;28;20096;-79
2023/03/26 06:53:22;;;;;;;10.95;2.28;;;6.10;90.10;;;;;;4987457;28;20380;-80
2023/03/26 06:55:48;;;;;;;14.13;2.70;;;6.00;89.70;;;;;;4992726;28;20061;-80
2023/03/26 06:58:13;;;;;;;9.55;2.28;;;6.10;90.00;;;;;;4992809;28;21557;-80
2023/03/26 07:00:40;;;;;;;9.10;2.03;;;6.10;90.10;;;;;;4989364;28;20115;-80
2023/03/26 07:03:07;;;;;;;12.60;2.05;;;6.10;89.90;;;;;;4997221;28;20078;-78
2023/03/26 07:05:32;;;;;;;12.70;2.30;;;6.10;89.30;;;;;;5003455;28;20061;-80
2023/03/26 07:07:58;;;;;;;9.90;2.22;;;6.10;88.80;;;;;;4987170;28;20065;-79
2023/03/26 07:10:23;;;;;;;16.33;2.40;;;6.10;89.30;;;;;;4986331;28;20388;-80
2023/03/26 07:12:49;;;;;;;12.27;1.77;;;6.10;88.90;;;;;;4984312;28;20045;-81
2023/03/26 07:15:15;;;;;;;10.02;1.77;;;6.20;89.00;;;;;;4988214;28;20128;-81
2023/03/26 07:17:40;;;;;;;9.98;2.28;;;6.10;88.30;;;;;;4990426;28;20435;-82
2023/03/26 07:20:07;;;;;;;15.88;2.30;;;6.20;88.90;;;;;;4991427;28;20038;-82
2023/03/26 07:22:34;;;;;;;10.88;2.05;;;6.20;88.90;;;;;;4992433;28;20041;-82
2023/03/26 07:25:00;;;;;;;12.40;2.42;;;6.30;88.90;;;;;;4982105;28;20034;-81
2023/03/26 07:27:45;;;;;;;13.93;1.92;;;6.30;88.80;;;;;;4989673;28;20092;-82
2023/03/26 07:30:20;;;;;;;14.10;2.95;;;6.30;88.80;;;;;;4989223;28;20023;-82
2023/03/26 07:33:07;;;;;;;10.73;1.58;;;6.30;88.80;;;;;;4991286;28;20034;-82
2023/03/26 07:35:51;;;;;;;8.75;2.05;;;6.30;88.50;;;;;;4993374;28;20447;-81
2023/03/26 07:38:28;;;;;;;10.73;1.80;;;6.40;87.70;;;;;;4987280;28;20031;-80
2023/03/26 07:41:19;;;;;;;9.65;1.70;;;6.40;88.10;;;;;;4988009;28;20075;-80
2023/03/26 07:44:11;;;;;;;8.67;1.87;;;6.30;87.40;;;;;;4969329;28;20101;-81
2023/03/26 07:46:38;;;;;;;11.95;1.70;;;6.30;85.90;;;;;;4960310;28;20085;-78
2023/03/26 07:49:03;;;;;;;11.32;1.92;;;6.30;85.60;;;;;;4990588;28;20084;-80
2023/03/26 07:51:30;;;;;;;10.27;2.08;;;6.30;84.80;;;;;;4985994;28;20034;-77
2023/03/26 07:53:57;;;;;;;15.20;2.03;;;6.30;85.00;;;;;;4982502;28;20442;-81
2023/03/26 07:56:55;;;;;;;15.48;2.30;;;6.40;85.00;;;;;;4974060;28;20080;-80
2023/03/26 07:59:37;;;;;;;17.35;2.28;;;6.40;85.50;;;;;;4970902;28;20045;-80
2023/03/26 08:02:39;;;;;;;10.35;1.92;;;6.50;85.30;;;;;;4989114;28;20035;-79
2023/03/26 08:05:18;;;;;;;8.80;1.60;;;6.50;83.70;;;;;;4992990;28;20501;-80
2023/03/26 08:08:12;;;;;;;11.98;2.08;;;6.60;82.90;;;;;;4986092;28;20033;-79
2023/03/26 08:11:19;;;;;;;11.05;1.77;;;6.60;82.90;;;;;;4987059;28;20510;-79
2023/03/26 08:14:05;;;;;;;10.50;1.80;;;6.50;83.20;;;;;;4993592;28;20368;-80
2023/03/26 08:16:51;;;;;;;12.32;1.48;;;6.70;83.30;;;;;;4985531;28;20030;-80
2023/03/26 08:19:37;;;;;;;6.28;1.90;;;6.60;83.20;;;;;;4989688;28;20106;-80
2023/03/26 08:22:10;;;;;;;8.73;1.70;;;6.50;82.80;;;;;;4996101;28;20114;-82
2023/03/26 08:24:38;;;;;;;11.32;2.20;;;6.40;81.60;;;;;;4989162;28;20129;-81
2023/03/26 08:27:12;;;;;;;8.10;1.65;;;6.30;81.40;;;;;;4988224;28;20443;-81
2023/03/26 08:29:48;;;;;;;7.95;1.73;;;6.30;81.60;;;;;;4990657;28;20040;-81
2023/03/26 08:32:17;;;;;;;6.85;1.55;;;6.20;80.60;;;;;;4987489;28;20110;-82
2023/03/26 08:34:43;;;;;;;11.25;1.73;;;6.40;81.60;;;;;;4995704;28;20034;-82
2023/03/26 08:37:09;;;;;;;9.70;1.85;;;6.40;81.10;;;;;;4990405;28;20482;-82
2023/03/26 08:39:37;;;;;;;10.40;1.88;;;6.50;82.50;;;;;;4985834;28;20030;-81
2023/03/26 08:42:18;;;;;;;9.52;2.05;;;6.60;82.70;;;;;;4989768;28;20138;-83
2023/03/26 08:45:14;;;;;;;11.02;1.48;;;6.70;81.50;;;;;;4992936;28;20197;-81
2023/03/26 08:48:00;;;;;;;9.07;1.80;;;6.80;81.70;;;;;;4980243;28;20030;-83
2023/03/26 08:51:02;;;;;;;8.40;1.88;;;6.90;82.10;;;;;;4993567;28;20018;-82
2023/03/26 08:53:42;;;;;;;14.45;2.20;;;6.80;80.60;;;;;;4984720;28;20056;-80
2023/03/26 08:56:15;;;;;;;14.63;2.17;;;6.70;80.30;;;;;;4986970;28;20141;-80
2023/03/26 08:59:21;;;;;;;12.50;2.05;;;6.80;80.60;;;;;;4984215;28;20022;-84
2023/03/26 09:02:05;;;;;;;13.88;2.38;;;6.90;79.00;;;;;;4957145;28;20497;-82
2023/03/26 09:04:42;;;;;;;10.35;1.92;;;7.00;79.20;;;;;;4983664;28;20360;-82
2023/03/26 09:07:17;;;;;;;11.35;1.95;;;7.00;78.20;;;;;;4985301;28;20538;-82
2023/03/26 09:10:28;;;;;;;19.02;2.47;;;7.20;79.00;;;;;;4978601;28;20355;-81
2023/03/26 09:12:56;;;;;;;12.23;2.10;;;7.50;80.40;;;;;;4967667;28;20104;-81
2023/03/26 09:15:35;;;;;;;12.65;1.67;;;7.40;77.20;;;;;;4986172;28;20120;-80
2023/03/26 09:18:53;;;;;;;13.10;2.38;;;7.40;76.90;;;;;;4980995;28;20033;-82
2023/03/26 09:21:38;;;;;;;13.63;2.53;;;7.30;76.10;;;;;;4881744;29;20051;-81
2023/03/26 09:24:26;;;;;;;16.80;2.53;;;7.10;76.30;;;;;;4886708;29;20438;-79
2023/03/26 09:27:38;;;;;;;11.18;2.42;;;7.10;76.10;;;;;;4974159;28;20094;-80
2023/03/26 09:30:30;;;;;;;21.42;2.72;;;7.20;76.30;;;;;;4920622;29;20038;-80
2023/03/26 09:33:10;;;;;;;14.20;2.20;;;7.30;76.40;;;;;;4921082;29;20123;-81
2023/03/26 09:36:13;;;;;;;16.70;1.90;;;7.30;75.60;;;;;;4975328;28;20046;-80
2023/03/26 09:38:56;;;;;;;16.35;2.30;;;7.10;74.80;;;;;;4985139;28;20109;-79
2023/03/26 09:41:42;;;;;;;13.27;2.88;;;7.00;72.70;;;;;;4982316;28;20107;-80
2023/03/26 09:44:37;;;;;;;14.77;2.65;;;7.10;75.50;;;;;;4980679;28;20038;-75
2023/03/26 09:47:18;;;;;;;11.45;2.00;;;7.30;76.20;;;;;;4976860;28;20033;-83
2023/03/26 09:50:10;;;;;;;13.27;2.60;;;7.40;75.40;;;;;;4988543;28;20026;-81
2023/03/26 09:52:35;;;;;;;9.80;1.90;;;7.50;75.10;;;;;;4975586;28;20042;-78
2023/03/26 09:55:41;;;;;;;11.35;2.30;;;7.40;71.60;;;;;;4984018;28;20435;-79
2023/03/26 09:58:29;;;;;;;15.85;2.75;;;7.60;74.00;;;;;;4992234;28;20048;-79
2023/03/26 10:01:07;;;;;;;15.57;2.58;;;7.80;73.60;;;;;;4981636;28;20030;-79
2023/03/26 10:03:47;;;;;;;12.98;2.25;;;7.70;74.40;;;;;;4983840;28;20026;-79
2023/03/26 10:06:34;;;;;;;11.02;3.22;;;7.70;73.50;;;;;;4986659;28;20432;-79
2023/03/26 10:09:34;;;;;;;11.57;1.65;;;8.00;73.10;;;;;;4982565;28;20096;-76
2023/03/26 10:12:09;;;;;;;13.25;2.05;;;7.90;71.80;;;;;;4985165;28;20394;-78
2023/03/26 10:15:05;;;;;;;16.45;3.22;;;7.80;69.30;;;;;;4990415;28;20081;-80
2023/03/26 10:17:54;;;;;;;18.88;2.53;;;7.70;70.80;;;;;;4988018;28;20079;-81
2023/03/26 10:20:41;;;;;;;13.80;2.22;;;7.90;71.50;;;;;;4984980;28;20033;-76
2023/03/26 10:23:38;;;;;;;13.45;2.50;;;7.70;69.70;;;;;;4981257;28;20367;-79
2023/03/26 10:26:23;;;;;;;18.60;3.08;;;8.40;70.80;;;;;;4982429;28;21332;-81
2023/03/26 10:29:14;;;;;;;13.90;2.70;;;8.80;69.60;;;;;;4989180;28;20097;-75
2023/03/26 10:31:52;;;;;;;9.38;2.28;;;8.70;69.00;;;;;;4980229;28;20437;-77
2023/03/26 10:34:45;;;;;;;16.77;2.67;;;8.60;66.70;;;;;;4989483;28;20038;-78
2023/03/26 10:37:39;;;;;;;16.50;2.88;;;8.70;70.60;;;;;;4984698;28;20365;-78
2023/03/26 10:40:22;;;;;;;18.08;2.42;;;8.50;70.40;;;;;;4985873;28;20385;-77
2023/03/26 10:42:54;;;;;;;10.32;2.70;;;8.60;70.60;;;;;;4989342;28;20102;-78
2023/03/26 10:45:45;;;;;;;20.92;2.83;;;8.60;68.80;;;;;;4984230;28;20034;-79
2023/03/26 10:48:28;;;;;;;9.95;2.17;;;8.70;69.30;;;;;;4983508;28;20137;-76
2023/03/26 10:51:18;;;;;;;14.43;2.00;;;8.40;68.60;;;;;;4985876;28;20042;-77
2023/03/26 10:53:52;;;;;;;16.70;2.50;;;8.50;66.30;;;;;;4987225;28;20487;-77
2023/03/26 10:56:28;;;;;;;12.95;1.95;;;8.60;67.00;;;;;;4985833;28;20026;-78
2023/03/26 10:58:55;;;;;;;11.52;2.30;;;8.40;67.20;;;;;;4985785;28;20049;-77
2023/03/26 11:01:55;;;;;;;13.43;2.60;;;8.80;67.40;;;;;;4963679;28;20037;-77
2023/03/26 11:04:37;;;;;;;12.60;2.13;;;8.60;65.40;;;;;;4984879;28;20102;-75
2023/03/26 11:07:29;;;;;;;11.70;2.17;;;8.80;63.90;;;;;;4984360;28;20030;-77
2023/03/26 11:10:10;;;;;;;11.23;2.72;;;8.70;66.00;;;;;;4987650;28;20027;-77
2023/03/26 11:12:47;;;;;;;;;;;8.90;63.50;;;;;;4983165;28;20406;-78
2023/03/26 11:15:37;;;;;;;8.88;1.60;;;9.60;64.90;;;;;;4991546;28;20013;-80
2023/03/26 11:18:23;;;;;;;10.00;2.53;;;10.00;65.10;;;;;;4994810;28;20041;-80
2023/03/26 11:20:56;;;;;;;15.68;2.88;;;10.10;61.50;;;;;;4988001;28;20052;-80
2023/03/26 11:23:34;;;;;;;13.70;2.30;;;10.30;61.20;;;;;;4991295;28;20056;-78
2023/03/26 11:26:32;;;;;;;14.35;2.40;;;10.10;60.10;;;;;;4989534;28;20029;-77
2023/03/26 11:29:17;;;;;;;11.63;2.42;;;10.20;61.70;;;;;;4954827;28;20042;-77
2023/03/26 11:31:55;;;;;;;13.13;2.40;;;10.40;60.70;;;;;;4988669;28;20030;-77
2023/03/26 11:34:37;;;;;;;10.50;2.10;;;10.70;58.10;;;;;;4987888;28;20034;-77
2023/03/26 11:37:08;;;;;;;13.80;2.30;;;10.60;62.20;;;;;;4987671;28;20041;-78
2023/03/26 11:39:44;;;;;;;10.35;2.10;;;10.50;59.10;;;;;;4981840;28;20034;-76
2023/03/26 11:42:13;;;;;;;8.93;2.13;;;10.60;59.90;;;;;;4960853;28;20094;-76
2023/03/26 11:44:44;;;;;;;12.63;2.42;;;10.70;60.30;;;;;;4978219;28;20537;-77
2023/03/26 11:47:14;;;;;;;17.80;2.42;;;10.00;61.40;;;;;;4964662;28;20057;-77
2023/03/26 11:49:41;;;;;;;12.32;2.25;;;9.60;62.80;;;;;;4991506;28;20112;-77
2023/03/26 11:52:10;;;;;;;12.48;2.20;;;9.80;59.90;;;;;;4969219;28;20540;-76
2023/03/26 11:54:37;;;;;;;16.98;2.38;;;10.10;58.70;;;;;;4982242;28;20034;-76
2023/03/26 11:57:07;;;;;;;9.98;2.00;;;10.40;58.50;;;;;;4987762;28;20038;-76
2023/03/26 12:00:03;;;;;;;12.45;2.03;;;10.40;55.40;;;;;;4983065;28;20213;-76
2023/03/26 12:02:40;;;;;;;5.90;1.83;;;11.60;56.50;;;;;;4961982;28;20026;-76
2023/03/26 12:05:21;;;;;;;10.82;2.22;;;11.40;55.10;;;;;;4985306;28;20266;-76
2023/03/26 12:07:58;;;;;;;7.43;2.20;;;10.70;57.20;;;;;;4980564;28;20069;-75
2023/03/26 12:10:37;;;;;;;12.02;2.58;;;10.60;59.90;;;;;;4984946;28;20392;-76
2023/03/26 12:13:19;;;;;;;14.10;2.42;;;10.10;60.20;;;;;;4983306;28;20093;-77
2023/03/26 12:15:44;;;;;;;11.75;2.63;;;10.60;63.00;;;;;;4988206;28;20049;-78
2023/03/26 12:18:25;;;;;;;13.23;2.30;;;11.30;58.50;;;;;;4986439;28;20117;-78
2023/03/26 12:21:03;;;;;;;11.17;2.20;;;11.60;55.70;;;;;;4986029;28;20042;-78
2023/03/26 12:23:41;;;;;;;11.75;2.20;;;12.30;55.40;;;;;;4981296;28;20041;-78
2023/03/26 12:26:19;;;;;;;19.08;2.45;;;12.70;56.00;;;;;;4986397;28;20117;-78
2023/03/26 12:28:50;;;;;;;14.48;2.55;;;12.10;56.80;;;;;;4987201;28;20030;-78
2023/03/26 12:31:17;;;;;;;10.15;2.30;;;11.50;57.00;;;;;;4982556;28;20079;-78
2023/03/26 12:33:45;;;;;;;13.77;2.70;;;10.90;57.10;;;;;;4983874;28;20117;-80
2023/03/26 12:36:16;;;;;;;11.15;2.30;;;10.70;60.60;;;;;;4986186;28;20038;-78
2023/03/26 12:38:42;;;;;;;11.18;2.35;;;10.90;56.70;;;;;;4989293;28;20034;-79
2023/03/26 12:41:12;;;;;;;12.05;2.50;;;11.60;56.60;;;;;;4988911;28;20041;-79
2023/03/26 12:43:52;;;;;;;13.93;2.53;;;11.80;55.80;;;;;;4972694;28;20110;-79
2023/03/26 12:46:31;;;;;;;12.73;2.63;;;12.20;55.00;;;;;;4980527;28;20092;-79
2023/03/26 12:49:04;;;;;;;9.88;2.35;;;12.10;53.30;;;;;;4986864;28;20108;-77
2023/03/26 12:52:04;;;;;;;10.32;2.13;;;12.40;52.80;;;;;;4984116;28;20434;-78
2023/03/26 12:55:05;;;;;;;11.48;2.17;;;12.90;52.00;;;;;;4975612;28;20070;-79
2023/03/26 12:57:42;;;;;;;8.25;1.83;;;12.00;54.90;;;;;;4983159;28;20049;-78
2023/03/26 13:00:21;;;;;;;16.20;2.58;;;11.80;52.50;;;;;;4983354;28;20148;-79
2023/03/26 13:02:59;;;;;;;11.13;2.25;;;12.00;53.00;;;;;;4985220;28;20057;-79
2023/03/26 13:05:49;;;;;;;8.13;1.90;;;12.30;53.10;;;;;;4990005;28;20121;-79
2023/03/26 13:08:27;;;;;;;13.75;2.97;;;12.70;52.20;;;;;;4982629;28;20034;-78
2023/03/26 13:11:18;;;;;;;15.07;3.03;;;12.60;54.10;;;;;;4981327;28;20425;-77
2023/03/26 13:13:55;;;;;;;9.00;1.98;;;12.10;57.20;;;;;;4984222;28;20030;-75
2023/03/26 13:16:48;;;;;;;12.80;2.95;;;11.60;57.40;;;;;;4985502;28;20042;-75
2023/03/26 13:19:22;;;;;;;9.23;1.88;;;11.80;56.60;;;;;;4983658;28;20030;-76
2023/03/26 13:22:20;;;;;;;10.65;2.63;;;11.80;55.50;;;;;;4986417;28;20033;-75
2023/03/26 13:25:23;;;;;;;12.27;2.70;;;12.10;55.50;;;;;;4984037;28;20057;-76
2023/03/26 13:28:08;;;;;;;13.00;2.15;;;12.50;54.10;;;;;;4987489;28;20122;-76